createdAt,value
2022-12-11T00:00:06.675Z,45.67
2022-12-11T00:02:33.272Z,48.80
2022-12-11T00:04:59.778Z,50.73
2022-12-11T00:07:26.901Z,51.57
2022-12-11T00:09:53.437Z,46.40
2022-12-11T00:12:19.940Z,47.43
2022-12-11T00:14:46.406Z,48.13
2022-12-11T00:17:12.924Z,52.00
2022-12-11T00:19:39.460Z,42.03
2022-12-11T00:22:05.977Z,51.00
2022-12-11T00:24:32.634Z,44.60
2022-12-11T00:27:00.237Z,48.70
2022-12-11T00:29:27.292Z,46.33
2022-12-11T00:31:53.889Z,49.47
2022-12-11T00:34:20.521Z,55.67
2022-12-11T00:36:47.011Z,63.57
2022-12-11T00:39:13.548Z,56.63
2022-12-11T00:41:40.115Z,52.27
2022-12-11T00:44:06.678Z,56.23
2022-12-11T00:46:33.423Z,63.50
2022-12-11T00:48:59.889Z,51.63
2022-12-11T00:51:26.382Z,55.03
2022-12-11T00:53:52.932Z,59.10
2022-12-11T00:56:22.091Z,59.20
2022-12-11T00:58:49.527Z,52.40
2022-12-11T01:01:21.443Z,59.93
2022-12-11T01:03:48.849Z,55.97
2022-12-11T01:06:22.018Z,60.00
2022-12-11T01:08:48.821Z,67.30
2022-12-11T01:11:16.778Z,63.07
2022-12-11T01:13:43.875Z,63.97
2022-12-11T01:16:15.939Z,65.13
2022-12-11T01:18:43.045Z,63.77
2022-12-11T01:21:12.272Z,62.80
2022-12-11T01:23:39.374Z,64.20
2022-12-11T01:26:07.255Z,65.43
2022-12-11T01:28:34.430Z,67.57
2022-12-11T01:31:01.644Z,60.50
2022-12-11T01:33:28.282Z,59.63
2022-12-11T01:35:54.821Z,59.20
2022-12-11T01:38:21.379Z,60.90
2022-12-11T01:40:49.948Z,56.77
2022-12-11T01:43:16.555Z,58.80
2022-12-11T01:45:46.203Z,52.10
2022-12-11T01:48:18.688Z,52.10
2022-12-11T01:50:49.844Z,54.67
2022-12-11T01:53:23.454Z,59.50
2022-12-11T01:55:53.623Z,57.30
2022-12-11T01:58:23.134Z,55.97
2022-12-11T02:00:49.747Z,51.60
2022-12-11T02:03:16.500Z,54.07
2022-12-11T02:05:43.171Z,55.07
2022-12-11T02:08:09.941Z,50.70
2022-12-11T02:10:54.738Z,47.50
2022-12-11T02:13:34.242Z,46.20
2022-12-11T02:16:14.853Z,48.47
2022-12-11T02:19:07.997Z,55.53
2022-12-11T02:21:41.137Z,47.87
2022-12-11T02:24:22.356Z,47.20
2022-12-11T02:27:21.322Z,45.80
2022-12-11T02:30:03.104Z,50.60
2022-12-11T02:32:44.102Z,45.83
2022-12-11T02:35:14.020Z,49.97
2022-12-11T02:37:43.746Z,48.07
2022-12-11T02:40:14.791Z,51.17
2022-12-11T02:42:44.057Z,48.73
2022-12-11T02:45:12.904Z,47.80
2022-12-11T02:47:39.987Z,46.60
2022-12-11T02:50:11.358Z,47.40
2022-12-11T02:52:41.468Z,47.33
2022-12-11T02:55:10.327Z,45.03
2022-12-11T02:57:46.363Z,45.33
2022-12-11T03:00:13.843Z,50.13
2022-12-11T03:02:41.380Z,45.47
2022-12-11T03:05:09.662Z,42.90
2022-12-11T03:07:40.036Z,48.40
2022-12-11T03:10:10.057Z,45.90
2022-12-11T03:12:40.675Z,47.50
2022-12-11T03:15:11.265Z,42.83
2022-12-11T03:17:52.456Z,45.17
2022-12-11T03:20:35.356Z,42.70
2022-12-11T03:23:11.033Z,42.70
2022-12-11T03:25:53.355Z,44.47
2022-12-11T03:28:27.212Z,46.00
2022-12-11T03:30:54.690Z,47.13
2022-12-11T03:33:26.739Z,45.50
2022-12-11T03:36:01.125Z,47.93
2022-12-11T03:38:51.530Z,51.95
2022-12-11T03:41:21.463Z,46.83
2022-12-11T03:43:52.020Z,44.40
2022-12-11T03:46:22.553Z,48.93
2022-12-11T03:48:50.578Z,44.73
2022-12-11T03:51:17.916Z,46.17
2022-12-11T03:53:46.078Z,53.40
2022-12-11T03:56:15.836Z,47.87
2022-12-11T03:58:42.348Z,47.53
2022-12-11T04:01:10.569Z,46.83
2022-12-11T04:03:38.540Z,51.07
2022-12-11T04:06:05.199Z,50.30
2022-12-11T04:08:32.057Z,47.63
2022-12-11T04:11:17.273Z,50.20
2022-12-11T04:13:43.852Z,47.87
2022-12-11T04:16:10.918Z,53.37
2022-12-11T04:18:56.157Z,54.30
2022-12-11T04:24:16.776Z,44.97
2022-12-11T04:26:47.645Z,48.60
2022-12-11T04:29:15.300Z,48.00
2022-12-11T04:31:41.970Z,51.43
2022-12-11T04:34:08.703Z,46.60
2022-12-11T04:36:35.769Z,51.60
2022-12-11T04:39:02.302Z,53.10
2022-12-11T04:41:28.873Z,52.30
2022-12-11T04:43:55.390Z,48.83
2022-12-11T04:46:23.863Z,54.97
2022-12-11T04:48:57.030Z,56.00
2022-12-11T04:51:24.815Z,46.90
2022-12-11T04:53:51.324Z,52.93
2022-12-11T04:56:17.925Z,47.73
2022-12-11T04:58:45.558Z,48.10
2022-12-11T05:01:17.895Z,43.40
2022-12-11T05:03:45.215Z,48.43
2022-12-11T05:06:13.416Z,45.43
2022-12-11T05:08:42.305Z,48.87
2022-12-11T05:11:12.133Z,44.47
2022-12-11T05:13:39.463Z,49.43
2022-12-11T05:16:08.832Z,52.70
2022-12-11T05:18:35.694Z,43.07
2022-12-11T05:21:05.697Z,46.67
2022-12-11T05:23:32.329Z,46.67
2022-12-11T05:26:01.833Z,48.97
2022-12-11T05:28:29.942Z,48.80
2022-12-11T05:31:01.969Z,50.87
2022-12-11T05:33:29.096Z,48.60
2022-12-11T05:35:55.754Z,46.13
2022-12-11T05:38:23.046Z,48.80
2022-12-11T05:41:01.052Z,50.67
2022-12-11T05:43:29.876Z,49.63
2022-12-11T05:45:57.021Z,45.87
2022-12-11T05:48:23.568Z,48.27
2022-12-11T05:51:00.730Z,44.90
2022-12-11T05:53:27.789Z,45.40
2022-12-11T05:55:54.415Z,51.40
2022-12-11T05:58:21.721Z,46.17
2022-12-11T06:00:48.330Z,46.00
2022-12-11T06:03:15.151Z,46.63
2022-12-11T06:05:42.721Z,44.00
2022-12-11T06:08:09.389Z,52.03
2022-12-11T06:10:36.025Z,41.47
2022-12-11T06:13:02.762Z,45.70
2022-12-11T06:15:29.767Z,44.27
2022-12-11T06:17:56.244Z,43.83
2022-12-11T06:20:22.756Z,41.90
2022-12-11T06:22:49.360Z,43.30
2022-12-11T06:25:16.386Z,43.97
2022-12-11T06:27:42.851Z,46.73
2022-12-11T06:30:09.931Z,46.10
2022-12-11T06:32:36.863Z,45.60
2022-12-11T06:35:03.566Z,44.47
2022-12-11T06:37:30.058Z,42.83
2022-12-11T06:39:56.507Z,44.37
2022-12-11T06:42:22.968Z,41.63
2022-12-11T06:44:49.464Z,42.20
2022-12-11T06:47:16.024Z,45.20
2022-12-11T06:49:42.570Z,43.00
2022-12-11T06:52:11.563Z,47.00
2022-12-11T06:54:41.530Z,44.03
2022-12-11T06:57:09.445Z,44.70
2022-12-11T06:59:36.021Z,40.10
2022-12-11T07:02:03.072Z,41.73
2022-12-11T07:04:30.686Z,37.30
2022-12-11T07:06:57.588Z,37.53
2022-12-11T07:09:24.804Z,39.97
2022-12-11T07:11:52.352Z,34.23
2022-12-11T07:14:20.120Z,34.77
2022-12-11T07:16:46.785Z,38.53
2022-12-11T07:19:13.550Z,46.53
2022-12-11T07:21:40.073Z,35.67
2022-12-11T07:24:07.275Z,36.33
2022-12-11T07:26:33.842Z,41.40
2022-12-11T07:29:00.920Z,41.33
2022-12-11T07:31:29.304Z,36.27
2022-12-11T07:33:57.911Z,32.60
2022-12-11T07:36:25.452Z,40.17
2022-12-11T07:38:52.104Z,34.93
2022-12-11T07:41:18.983Z,35.17
2022-12-11T07:43:46.767Z,35.93
2022-12-11T07:46:20.072Z,37.83
2022-12-11T07:48:48.635Z,34.65
2022-12-11T07:51:19.869Z,42.20
2022-12-11T07:53:48.658Z,40.93
2022-12-11T07:56:16.476Z,44.70
2022-12-11T07:58:43.606Z,30.23
2022-12-11T08:01:15.060Z,36.83
2022-12-11T08:03:42.165Z,30.73
2022-12-11T08:06:09.536Z,34.97
2022-12-11T08:08:36.487Z,38.70
2022-12-11T08:11:04.266Z,28.80
2022-12-11T08:13:30.850Z,25.77
2022-12-11T08:15:57.461Z,28.93
2022-12-11T08:18:24.329Z,33.17
2022-12-11T08:20:51.040Z,31.03
2022-12-11T08:23:17.640Z,33.03
2022-12-11T08:25:44.146Z,32.80
2022-12-11T08:28:10.634Z,34.50
2022-12-11T08:30:39.509Z,36.80
2022-12-11T08:33:06.939Z,32.03
2022-12-11T08:35:33.470Z,30.93
2022-12-11T08:37:59.980Z,31.97
2022-12-11T08:40:26.451Z,32.10
2022-12-11T08:42:52.980Z,28.43
2022-12-11T08:45:19.524Z,31.17
2022-12-11T08:47:46.154Z,30.10
2022-12-11T08:50:12.625Z,29.70
2022-12-11T08:52:39.183Z,31.47
2022-12-11T08:55:06.501Z,26.27
2022-12-11T08:57:33.035Z,26.10
2022-12-11T08:59:59.625Z,27.97
2022-12-11T09:02:26.614Z,26.33
2022-12-11T09:04:53.167Z,27.17
2022-12-11T09:07:19.686Z,29.43
2022-12-11T09:09:46.221Z,27.20
2022-12-11T09:12:12.719Z,25.50
2022-12-11T09:14:39.273Z,25.40
2022-12-11T09:17:06.060Z,29.97
2022-12-11T09:19:32.759Z,21.97
2022-12-11T09:21:59.328Z,24.37
2022-12-11T09:24:26.376Z,27.40
2022-12-11T09:26:54.533Z,24.57
2022-12-11T09:29:21.079Z,29.10
2022-12-11T09:31:49.086Z,25.53
2022-12-11T09:34:15.738Z,29.53
2022-12-11T09:36:42.661Z,23.50
2022-12-11T09:39:10.861Z,25.50
2022-12-11T09:41:40.583Z,27.00
2022-12-11T09:44:41.090Z,28.27
2022-12-11T09:47:19.867Z,23.57
2022-12-11T09:49:49.257Z,21.77
2022-12-11T09:52:20.276Z,24.40
2022-12-11T09:54:57.826Z,23.73
2022-12-11T09:57:32.778Z,26.60
2022-12-11T10:00:13.981Z,22.60
2022-12-11T10:03:17.785Z,24.23
2022-12-11T10:05:51.264Z,20.50
2022-12-11T10:08:23.422Z,24.43
2022-12-11T10:11:16.103Z,23.53
2022-12-11T10:14:17.836Z,26.57
2022-12-11T10:16:51.889Z,24.00
2022-12-11T10:19:24.489Z,27.80
2022-12-11T10:21:52.704Z,25.30
2022-12-11T10:25:07.685Z,29.70
2022-12-11T10:27:21.842Z,32.83
2022-12-11T10:30:01.288Z,25.50
2022-12-11T10:32:56.763Z,28.07
2022-12-11T10:38:02.558Z,32.70
2022-12-11T10:40:30.952Z,31.80
2022-12-11T10:42:57.820Z,29.80
2022-12-11T10:45:25.032Z,26.47
2022-12-11T10:48:03.133Z,26.33
2022-12-11T10:50:29.713Z,25.63
2022-12-11T10:52:57.624Z,29.17
2022-12-11T10:55:53.713Z,27.77
2022-12-11T10:58:24.336Z,22.37
2022-12-11T11:01:07.800Z,19.37
2022-12-11T11:03:36.633Z,22.70
2022-12-11T11:06:17.659Z,21.80
2022-12-11T11:08:49.039Z,20.30
2022-12-11T11:11:28.861Z,22.00
2022-12-11T11:14:05.487Z,18.73
2022-12-11T11:16:35.109Z,17.43
2022-12-11T11:19:01.663Z,17.60
2022-12-11T11:21:30.107Z,19.23
2022-12-11T11:23:56.904Z,18.67
2022-12-11T11:26:23.936Z,21.07
2022-12-11T11:28:53.978Z,23.23
2022-12-11T11:31:23.211Z,19.17
2022-12-11T11:34:03.144Z,21.73
2022-12-11T11:36:33.183Z,20.17
2022-12-11T11:39:02.721Z,21.10
2022-12-11T11:41:29.152Z,24.67
2022-12-11T11:43:59.744Z,20.60
2022-12-11T11:46:43.219Z,22.00
2022-12-11T11:49:31.777Z,20.87
2022-12-11T11:52:15.873Z,24.10
2022-12-11T11:54:58.595Z,23.43
2022-12-11T11:57:35.452Z,17.67
2022-12-11T12:00:10.711Z,20.40
2022-12-11T12:02:37.760Z,19.77
2022-12-11T12:05:04.822Z,23.13
2022-12-11T12:08:12.874Z,22.07
2022-12-11T12:10:45.225Z,21.20
2022-12-11T12:13:49.530Z,18.57
2022-12-11T12:16:53.679Z,23.42
2022-12-11T12:20:08.216Z,27.10
2022-12-11T12:22:50.664Z,17.93
2022-12-11T12:25:33.138Z,19.50
2022-12-11T12:28:05.650Z,18.83
2022-12-11T12:30:45.481Z,22.57
2022-12-11T12:33:27.660Z,18.47
2022-12-11T12:36:07.063Z,15.70
2022-12-11T12:38:55.096Z,22.70
2022-12-11T12:41:38.296Z,17.37
2022-12-11T12:44:13.713Z,17.60
2022-12-11T12:46:50.369Z,17.97
2022-12-11T12:49:30.900Z,18.63
2022-12-11T12:51:58.976Z,20.23
2022-12-11T12:54:27.670Z,15.97
2022-12-11T12:56:55.376Z,29.40
2022-12-11T12:59:24.561Z,19.27
2022-12-11T13:01:57.537Z,20.57
2022-12-11T13:04:55.955Z,17.30
2022-12-11T13:07:29.934Z,22.83
2022-12-11T13:10:07.950Z,15.17
2022-12-11T13:12:44.007Z,26.13
2022-12-11T13:15:43.873Z,22.60
2022-12-11T13:18:36.657Z,16.00
2022-12-11T13:21:25.346Z,17.63
2022-12-11T13:23:52.369Z,13.10
2022-12-11T13:26:30.636Z,13.57
2022-12-11T13:28:58.554Z,16.93
2022-12-11T13:31:35.886Z,16.75
2022-12-11T13:34:33.015Z,13.27
2022-12-11T13:37:01.273Z,12.90
2022-12-11T13:39:31.435Z,7.67
2022-12-11T13:42:05.597Z,11.27
2022-12-11T13:44:42.222Z,6.07
2022-12-11T13:47:14.421Z,10.00
2022-12-11T13:49:43.419Z,9.43
2022-12-11T13:52:22.979Z,11.40
2022-12-11T13:54:51.925Z,12.07
2022-12-11T13:57:21.447Z,13.98
2022-12-11T13:59:52.997Z,12.07
2022-12-11T14:02:40.191Z,11.88
2022-12-11T14:05:10.357Z,12.18
2022-12-11T14:07:42.717Z,14.32
2022-12-11T14:10:18.301Z,13.52
2022-12-11T14:12:55.835Z,10.98
2022-12-11T14:15:22.766Z,14.05
2022-12-11T14:17:51.934Z,13.98
2022-12-11T14:20:24.628Z,15.23
2022-12-11T14:22:51.268Z,15.25
2022-12-11T14:25:27.420Z,14.95
2022-12-11T14:27:56.250Z,15.55
2022-12-11T14:30:28.854Z,16.65
2022-12-11T14:33:04.164Z,15.73
2022-12-11T14:35:39.087Z,13.82
2022-12-11T14:38:17.460Z,17.05
2022-12-11T14:40:48.972Z,21.45
2022-12-11T14:43:25.611Z,17.38
2022-12-11T14:45:58.490Z,14.20
2022-12-11T14:48:54.849Z,15.85
2022-12-11T14:51:28.625Z,23.40
2022-12-11T14:53:55.767Z,17.77
2022-12-11T14:56:28.788Z,13.63
2022-12-11T14:59:03.007Z,13.02
2022-12-11T15:01:32.747Z,15.52
2022-12-11T15:04:30.383Z,16.23
2022-12-11T15:06:58.305Z,14.55
2022-12-11T15:09:36.360Z,18.67
2022-12-11T15:12:18.436Z,21.63
2022-12-11T15:14:53.240Z,17.85
2022-12-11T15:19:51.104Z,14.45
2022-12-11T15:22:19.698Z,15.82
2022-12-11T15:24:47.166Z,14.50
2022-12-11T15:27:37.349Z,15.43
2022-12-11T15:30:15.998Z,41.45
2022-12-11T15:32:42.809Z,18.08
2022-12-11T15:35:52.133Z,18.40
2022-12-11T15:38:30.581Z,14.82
2022-12-11T15:40:59.047Z,16.63
2022-12-11T15:43:27.290Z,17.15
2022-12-11T15:45:53.906Z,20.70
2022-12-11T15:48:20.480Z,30.60
2022-12-11T15:50:47.110Z,20.90
2022-12-11T15:53:13.707Z,18.60
2022-12-11T15:55:40.441Z,22.77
2022-12-11T15:58:15.567Z,22.95
2022-12-11T16:00:42.120Z,22.45
2022-12-11T16:03:14.137Z,23.70
2022-12-11T16:05:41.948Z,19.75
2022-12-11T16:08:14.994Z,22.27
2022-12-11T16:10:45.075Z,23.92
2022-12-11T16:13:12.911Z,24.10
2022-12-11T16:15:42.345Z,24.75
2022-12-11T16:18:14.319Z,22.40
2022-12-11T16:20:42.876Z,28.95
2022-12-11T16:23:10.491Z,22.02
2022-12-11T16:25:39.310Z,24.73
2022-12-11T16:28:07.009Z,27.33
2022-12-11T16:30:35.893Z,24.27
2022-12-11T16:33:10.228Z,20.42
2022-12-11T16:35:38.939Z,26.70
2022-12-11T16:38:05.457Z,27.70
2022-12-11T16:40:32.033Z,26.30
2022-12-11T16:42:58.593Z,32.95
2022-12-11T16:45:27.065Z,28.63
2022-12-11T16:47:54.045Z,40.47
2022-12-11T16:50:21.144Z,37.00
2022-12-11T16:52:47.812Z,34.67
2022-12-11T16:55:15.592Z,74.55
2022-12-11T16:57:42.190Z,42.40
2022-12-11T17:00:12.111Z,39.78
2022-12-11T17:02:39.081Z,71.03
2022-12-11T17:05:06.043Z,46.50
2022-12-11T17:07:33.379Z,33.80
2022-12-11T17:10:01.927Z,393.13
2022-12-11T17:12:29.206Z,69.28
2022-12-11T17:14:57.190Z,89.30
2022-12-11T17:17:24.206Z,43.78
2022-12-11T17:19:50.776Z,27.00
2022-12-11T17:22:17.480Z,28.60
2022-12-11T17:24:43.973Z,36.67
2022-12-11T17:27:10.548Z,48.45
2022-12-11T17:29:37.056Z,40.13
2022-12-11T17:32:06.868Z,38.40
2022-12-11T17:34:38.107Z,36.05
2022-12-11T17:37:05.489Z,39.05
2022-12-11T17:39:32.419Z,34.77
2022-12-11T17:41:59.561Z,33.03
2022-12-11T17:44:26.762Z,44.53
2022-12-11T17:46:53.612Z,79.53
2022-12-11T17:49:20.210Z,73.80
2022-12-11T17:51:47.945Z,39.47
2022-12-11T17:54:14.826Z,39.75
2022-12-11T17:56:41.397Z,46.25
2022-12-11T17:59:07.964Z,38.55
2022-12-11T18:01:34.774Z,45.40
2022-12-11T18:04:01.970Z,41.22
2022-12-11T18:06:29.704Z,42.70
2022-12-11T18:08:57.000Z,46.57
2022-12-11T18:11:24.354Z,40.33
2022-12-11T18:13:53.102Z,41.65
2022-12-11T18:16:31.718Z,44.75
2022-12-11T18:18:58.447Z,39.28
2022-12-11T18:21:29.269Z,37.00
2022-12-11T18:23:56.512Z,36.40
2022-12-11T18:26:23.124Z,41.40
2022-12-11T18:28:50.783Z,40.03
2022-12-11T18:31:18.045Z,42.97
2022-12-11T18:33:46.280Z,37.20
2022-12-11T18:36:14.898Z,43.55
2022-12-11T18:38:42.482Z,44.25
2022-12-11T18:41:14.019Z,47.65
2022-12-11T18:43:40.913Z,55.38
2022-12-11T18:46:10.175Z,43.60
2022-12-11T18:48:37.076Z,55.83
2022-12-11T18:51:13.103Z,55.42
2022-12-11T18:53:40.359Z,63.63
2022-12-11T18:56:10.230Z,54.20
2022-12-11T18:58:37.663Z,60.60
2022-12-11T19:01:17.594Z,63.10
2022-12-11T19:03:44.832Z,67.47
2022-12-11T19:06:17.753Z,65.55
2022-12-11T19:08:44.788Z,61.53
2022-12-11T19:11:18.221Z,70.90
2022-12-11T19:13:45.170Z,70.38
2022-12-11T19:16:26.686Z,70.90
2022-12-11T19:18:54.093Z,73.00
2022-12-11T19:21:20.696Z,64.90
2022-12-11T19:23:47.755Z,66.23
2022-12-11T19:26:17.643Z,59.83
2022-12-11T19:28:44.665Z,56.72
2022-12-11T19:31:13.240Z,80.97
2022-12-11T19:33:41.351Z,67.05
2022-12-11T19:36:16.531Z,77.40
2022-12-11T19:38:44.419Z,86.07
2022-12-11T19:41:16.812Z,94.15
2022-12-11T19:43:43.745Z,78.37
2022-12-11T19:46:10.979Z,80.70
2022-12-11T19:48:38.429Z,85.80
2022-12-11T19:51:07.560Z,81.00
2022-12-11T19:53:35.363Z,78.33
2022-12-11T19:56:02.219Z,92.00
2022-12-11T19:58:29.152Z,90.07
2022-12-11T20:00:55.720Z,89.13
2022-12-11T20:03:22.901Z,84.73
2022-12-11T20:05:49.418Z,87.33
2022-12-11T20:08:46.276Z,86.87
2022-12-11T20:11:07.308Z,86.17
2022-12-11T20:13:33.963Z,91.47
2022-12-11T20:16:01.309Z,85.87
2022-12-11T20:18:27.843Z,88.97
2022-12-11T20:20:54.329Z,83.83
2022-12-11T20:23:20.824Z,74.17
2022-12-11T20:25:47.433Z,71.27
2022-12-11T20:28:15.103Z,67.90
2022-12-11T20:30:41.636Z,64.87
2022-12-11T20:33:08.376Z,63.97
2022-12-11T20:35:34.908Z,70.53
2022-12-11T20:38:01.799Z,66.33
2022-12-11T20:40:28.926Z,63.90
2022-12-11T20:42:55.570Z,66.07
2022-12-11T20:45:22.153Z,73.40
2022-12-11T20:47:48.731Z,71.03
2022-12-11T20:50:15.865Z,70.23
2022-12-11T20:52:42.517Z,67.77
2022-12-11T20:55:10.969Z,70.73
2022-12-11T20:57:42.004Z,80.47
2022-12-11T21:00:12.368Z,76.83
2022-12-11T21:02:39.622Z,79.20
2022-12-11T21:05:06.657Z,71.83
2022-12-11T21:07:33.229Z,70.20
2022-12-11T21:09:59.740Z,56.67
2022-12-11T21:12:31.328Z,56.88
2022-12-11T21:14:58.416Z,62.90
2022-12-11T21:17:24.971Z,59.73
2022-12-11T21:19:51.557Z,52.13
2022-12-11T21:22:18.167Z,49.10
2022-12-11T21:24:44.656Z,45.50
2022-12-11T21:27:11.301Z,48.13
2022-12-11T21:29:38.002Z,57.33
2022-12-11T21:32:04.991Z,52.40
2022-12-11T21:34:31.736Z,51.17
2022-12-11T21:36:58.334Z,53.90
2022-12-11T21:39:26.095Z,54.05
2022-12-11T21:41:52.901Z,58.15
2022-12-11T21:47:06.103Z,51.95
2022-12-11T21:49:32.753Z,41.73
2022-12-11T21:51:59.405Z,48.80
2022-12-11T21:54:26.081Z,51.53
2022-12-11T21:56:54.139Z,52.23
2022-12-11T21:59:20.689Z,66.32
2022-12-11T22:01:47.277Z,57.50
2022-12-11T22:04:15.644Z,68.05
2022-12-11T22:06:43.648Z,68.35
2022-12-11T22:09:13.037Z,59.33
2022-12-11T22:11:40.501Z,72.18
2022-12-11T22:14:07.515Z,54.50
2022-12-11T22:16:35.376Z,55.13
2022-12-11T22:19:02.037Z,51.65
2022-12-11T22:21:29.099Z,47.97
2022-12-11T22:23:56.101Z,58.95
2022-12-11T22:26:26.000Z,54.95
2022-12-11T22:28:53.596Z,55.47
2022-12-11T22:31:23.141Z,58.57
2022-12-11T22:33:51.184Z,56.15
2022-12-11T22:36:18.986Z,55.40
2022-12-11T22:38:45.936Z,64.10
2022-12-11T22:41:29.947Z,58.73
2022-12-11T22:43:57.632Z,62.90
2022-12-11T22:46:27.853Z,58.70
2022-12-11T22:48:55.142Z,65.43
2022-12-11T22:51:22.777Z,57.70
2022-12-11T22:53:49.415Z,53.57
2022-12-11T22:56:16.536Z,54.67
2022-12-11T22:58:43.224Z,53.23
2022-12-11T23:01:35.966Z,56.57
2022-12-11T23:04:02.614Z,51.63
2022-12-11T23:06:29.224Z,49.13
2022-12-11T23:08:59.904Z,54.17
2022-12-11T23:11:29.642Z,61.70
2022-12-11T23:13:56.533Z,58.23
2022-12-11T23:16:25.113Z,60.20
2022-12-11T23:18:52.534Z,71.87
2022-12-11T23:21:22.791Z,72.47
2022-12-11T23:23:49.663Z,80.97
2022-12-11T23:26:18.855Z,71.93
2022-12-11T23:28:46.391Z,62.00
2022-12-11T23:31:13.849Z,86.90
2022-12-11T23:33:40.617Z,73.20
2022-12-11T23:36:07.879Z,68.20
2022-12-11T23:38:34.554Z,76.03
2022-12-11T23:41:02.768Z,79.53
2022-12-11T23:43:29.315Z,74.30
2022-12-11T23:45:55.939Z,76.57
2022-12-11T23:48:22.577Z,79.00
2022-12-11T23:50:49.295Z,81.00
2022-12-11T23:53:15.828Z,85.17
2022-12-11T23:55:44.841Z,68.37
2022-12-11T23:58:11.794Z,64.30
